TUPJ/RAD METAR and TAF weather

Enter ICAO airport designator
Station Type Date Time Source
TUPJ METAR 2020/04/02 21:00 UTC NOAA

TUPJ 022100Z 15008KT 10SM SCT021 28/22 A2992 RMK Q1013 VIS16KM


Station Type Date Time Source
TUPJ Decoded METAR 2020/04/02 21:00 UTC NOAA

Beef Island, Tortola, British Virgin Islands (TUPJ) 18-27N 064-32W
Apr 02, 2020 - 05:00 PM EDT / 2020.04.02 2100 UTC
Wind: from the SSE (150 degrees) at 9 MPH (8 KT):0
Visibility: 10 mile(s):0
Sky conditions: partly cloudy
Temperature: 82 F (28 C)
Dew Point: 71 F (22 C)
Relative Humidity: 69%
Pressure (altimeter): 29.92 in. Hg (1013 hPa)
ob: TUPJ 022100Z 15008KT 10SM SCT021 28/22 A2992 RMK Q1013 VIS16KM
cycle: 21

Station Type Date Time Source
TUPJ TAF 2020/04/03 00:51 UTC NOAA

TAF TUPJ 022300Z 0300/0324 16007KT 9999 SCT020

Example: see airport list